createdAt,value
2023-01-09T00:01:46.030Z,14.50
2023-01-09T00:04:49.931Z,17.00
2023-01-09T00:07:53.938Z,14.30
2023-01-09T00:10:57.953Z,15.50
2023-01-09T00:14:01.948Z,14.30
2023-01-09T00:17:05.944Z,14.90
2023-01-09T00:20:11.489Z,14.50
2023-01-09T00:23:15.802Z,15.70
2023-01-09T00:26:20.507Z,17.20
2023-01-09T00:32:29.199Z,15.50
2023-01-09T00:35:33.889Z,14.00
2023-01-09T00:38:38.600Z,15.40
2023-01-09T00:41:46.985Z,12.70
2023-01-09T00:44:55.546Z,14.70
2023-01-09T00:48:08.159Z,16.30
2023-01-09T00:51:12.274Z,17.50
2023-01-09T00:54:19.264Z,16.10
2023-01-09T00:57:23.482Z,12.30
2023-01-09T01:00:27.382Z,15.40
2023-01-09T01:03:31.413Z,16.20
2023-01-09T01:06:54.100Z,15.00
2023-01-09T01:09:58.078Z,14.00
2023-01-09T01:13:02.110Z,15.00
2023-01-09T01:16:12.857Z,17.30
2023-01-09T01:19:16.752Z,16.50
2023-01-09T01:22:20.902Z,14.00
2023-01-09T01:25:24.966Z,13.80
2023-01-09T01:28:28.848Z,13.40
2023-01-09T01:31:32.953Z,12.90
2023-01-09T01:34:36.845Z,13.20
2023-01-09T01:37:41.098Z,15.70
2023-01-09T01:40:45.012Z,15.20
2023-01-09T01:43:51.686Z,14.90
2023-01-09T01:46:56.827Z,16.20
2023-01-09T01:50:04.397Z,14.70
2023-01-09T01:53:14.280Z,14.50
2023-01-09T01:56:35.399Z,16.20
2023-01-09T01:59:50.208Z,14.60
2023-01-09T02:02:54.703Z,17.40
2023-01-09T02:05:58.965Z,16.80
2023-01-09T02:09:06.045Z,17.20
2023-01-09T02:12:25.983Z,13.10
2023-01-09T02:15:40.564Z,16.20
2023-01-09T02:18:54.191Z,12.10
2023-01-09T02:22:25.953Z,13.90
2023-01-09T02:26:08.814Z,14.50
2023-01-09T02:29:27.641Z,15.90
2023-01-09T02:32:45.050Z,15.40
2023-01-09T02:36:13.378Z,14.50
2023-01-09T02:42:42.381Z,15.10
2023-01-09T02:45:46.356Z,15.00
2023-01-09T02:48:53.772Z,15.60
2023-01-09T02:52:11.400Z,14.20
2023-01-09T02:55:39.377Z,17.40
2023-01-09T02:59:04.821Z,16.70
2023-01-09T03:02:29.660Z,17.80
2023-01-09T03:05:44.194Z,16.50
2023-01-09T03:08:53.143Z,15.60
2023-01-09T03:12:04.016Z,15.80
2023-01-09T03:15:13.161Z,13.80
2023-01-09T03:18:22.770Z,15.40
2023-01-09T03:21:28.697Z,13.70
2023-01-09T03:24:33.257Z,17.00
2023-01-09T03:27:37.214Z,16.40
2023-01-09T03:30:41.144Z,15.20
2023-01-09T03:33:45.101Z,14.80
2023-01-09T03:36:49.029Z,14.30
2023-01-09T03:39:53.026Z,15.20
2023-01-09T03:42:56.920Z,15.00
2023-01-09T03:46:01.241Z,13.80
2023-01-09T03:49:05.169Z,13.00
2023-01-09T03:52:09.156Z,17.30
2023-01-09T03:55:15.481Z,14.90
2023-01-09T03:58:21.208Z,15.70
2023-01-09T04:01:25.289Z,14.80
2023-01-09T04:04:29.361Z,13.30
2023-01-09T04:07:33.286Z,12.90
2023-01-09T04:10:37.298Z,13.60
2023-01-09T04:13:41.520Z,12.30
2023-01-09T04:16:45.570Z,14.30
2023-01-09T04:19:49.636Z,15.70
2023-01-09T04:22:53.567Z,12.80
2023-01-09T04:25:57.588Z,14.90
2023-01-09T04:29:01.703Z,13.60
2023-01-09T04:32:05.676Z,12.70
2023-01-09T04:35:09.755Z,13.00
2023-01-09T04:38:13.739Z,14.00
2023-01-09T04:41:38.011Z,15.10
2023-01-09T04:44:41.919Z,13.10
2023-01-09T04:47:45.883Z,11.20
2023-01-09T04:50:49.827Z,14.00
2023-01-09T04:53:53.798Z,14.00
2023-01-09T04:56:57.687Z,15.40
2023-01-09T05:00:02.153Z,9.70
2023-01-09T05:03:06.087Z,10.80
2023-01-09T05:06:10.000Z,14.30
2023-01-09T05:09:14.091Z,13.40
2023-01-09T05:12:18.098Z,13.50
2023-01-09T05:15:22.200Z,12.80
2023-01-09T05:18:26.265Z,14.50
2023-01-09T05:21:30.229Z,14.30
2023-01-09T05:24:34.175Z,12.30
2023-01-09T05:27:38.182Z,11.80
2023-01-09T05:30:42.191Z,13.30
2023-01-09T05:33:46.590Z,13.80
2023-01-09T05:36:50.736Z,13.50
2023-01-09T05:39:54.757Z,11.60
2023-01-09T05:42:58.764Z,11.40
2023-01-09T05:46:03.146Z,12.70
2023-01-09T05:49:07.195Z,12.80
2023-01-09T05:52:11.256Z,12.30
2023-01-09T05:55:15.738Z,11.50
2023-01-09T05:58:19.769Z,13.20
2023-01-09T06:01:24.084Z,13.00
2023-01-09T06:04:30.121Z,12.50
2023-01-09T06:07:36.713Z,12.00
2023-01-09T06:10:40.752Z,11.40
2023-01-09T06:13:44.706Z,11.10
2023-01-09T06:16:48.727Z,11.30
2023-01-09T06:19:52.794Z,11.90
2023-01-09T06:22:57.275Z,14.40
2023-01-09T06:26:01.215Z,11.80
2023-01-09T06:29:05.377Z,12.90
2023-01-09T06:32:09.369Z,11.10
2023-01-09T06:35:13.411Z,13.00
2023-01-09T06:38:17.377Z,10.80
2023-01-09T06:41:21.322Z,11.10
2023-01-09T06:44:25.596Z,11.00
2023-01-09T06:47:29.614Z,11.30
2023-01-09T06:50:34.166Z,13.10
2023-01-09T06:53:39.097Z,13.50
2023-01-09T06:56:43.545Z,12.20
2023-01-09T06:59:47.557Z,12.20
2023-01-09T07:02:51.515Z,11.00
2023-01-09T07:05:55.602Z,10.60
2023-01-09T07:09:00.019Z,11.20
2023-01-09T07:12:04.236Z,13.90
2023-01-09T07:15:09.533Z,11.40
2023-01-09T07:18:13.598Z,13.30
2023-01-09T07:21:17.631Z,10.90
2023-01-09T07:24:21.634Z,8.60
2023-01-09T07:27:25.645Z,9.30
2023-01-09T07:30:29.722Z,9.20
2023-01-09T07:33:35.011Z,10.00
2023-01-09T07:36:39.026Z,12.00
2023-01-09T07:39:43.759Z,12.50
2023-01-09T07:42:47.886Z,10.00
2023-01-09T07:45:51.805Z,11.30
2023-01-09T07:48:56.003Z,8.90
2023-01-09T07:52:00.238Z,9.00
2023-01-09T07:55:05.136Z,8.80
2023-01-09T07:58:09.623Z,9.90
2023-01-09T08:01:14.533Z,12.00
2023-01-09T08:04:18.862Z,11.60
2023-01-09T08:07:23.073Z,11.50
2023-01-09T08:10:27.114Z,11.50
2023-01-09T08:13:31.225Z,10.60
2023-01-09T08:16:35.213Z,8.60
2023-01-09T08:19:40.495Z,11.50
2023-01-09T08:22:50.497Z,9.60
2023-01-09T08:25:54.647Z,12.50
2023-01-09T08:28:58.661Z,10.30
2023-01-09T08:32:02.680Z,11.70
2023-01-09T08:35:08.315Z,9.00
2023-01-09T08:38:12.455Z,9.70
2023-01-09T08:41:36.713Z,10.40
2023-01-09T08:45:00.127Z,11.90
2023-01-09T08:48:05.324Z,14.10
2023-01-09T08:51:10.006Z,15.90
2023-01-09T08:54:14.214Z,13.40
2023-01-09T08:57:18.357Z,10.00
2023-01-09T09:00:24.516Z,13.60
2023-01-09T09:03:28.467Z,13.00
2023-01-09T09:06:33.639Z,10.50
2023-01-09T09:09:37.663Z,12.60
2023-01-09T09:12:41.818Z,12.10
2023-01-09T09:15:45.904Z,10.70
2023-01-09T09:18:50.037Z,11.30
2023-01-09T09:21:54.141Z,11.30
2023-01-09T09:24:58.370Z,13.30
2023-01-09T09:28:02.478Z,11.40
2023-01-09T09:31:07.483Z,14.70
2023-01-09T09:34:12.908Z,13.30
2023-01-09T09:37:16.803Z,14.00
2023-01-09T09:40:44.357Z,11.10
2023-01-09T09:44:21.221Z,10.90
2023-01-09T09:47:56.897Z,10.30
2023-01-09T09:51:21.285Z,10.50
2023-01-09T09:54:35.075Z,11.10
2023-01-09T09:57:39.585Z,13.70
2023-01-09T10:00:43.763Z,12.50
2023-01-09T10:03:52.522Z,12.80
2023-01-09T10:07:00.866Z,11.40
2023-01-09T10:10:10.133Z,10.90
2023-01-09T10:13:36.902Z,10.40
2023-01-09T10:16:47.383Z,10.60
2023-01-09T10:19:57.491Z,11.90
2023-01-09T10:23:14.326Z,12.80
2023-01-09T10:26:25.988Z,12.00
2023-01-09T10:30:08.980Z,12.40
2023-01-09T10:33:52.420Z,13.20
2023-01-09T10:37:05.615Z,10.20
2023-01-09T10:40:35.531Z,12.80
2023-01-09T10:43:47.387Z,11.90
2023-01-09T10:46:56.515Z,13.80
2023-01-09T10:50:02.664Z,12.90
2023-01-09T10:53:19.785Z,13.90
2023-01-09T10:56:30.858Z,12.90
2023-01-09T10:59:35.595Z,12.00
2023-01-09T11:02:39.734Z,14.60
2023-01-09T11:05:48.354Z,11.80
2023-01-09T11:08:56.857Z,15.80
2023-01-09T11:12:00.899Z,12.30
2023-01-09T11:15:16.994Z,12.30
2023-01-09T11:18:26.371Z,12.30
2023-01-09T11:21:40.794Z,10.90
2023-01-09T11:24:44.979Z,11.80
2023-01-09T11:28:09.988Z,11.20
2023-01-09T11:31:14.194Z,10.50
2023-01-09T11:34:21.619Z,15.00
2023-01-09T11:37:29.986Z,13.50
2023-01-09T11:40:45.092Z,14.00
2023-01-09T11:43:52.267Z,13.20
2023-01-09T11:46:56.804Z,12.80
2023-01-09T11:50:22.780Z,11.90
2023-01-09T11:53:27.478Z,13.30
2023-01-09T11:56:32.745Z,13.90
2023-01-09T11:59:36.774Z,14.60
2023-01-09T12:03:13.126Z,14.70
2023-01-09T12:06:36.724Z,11.20
2023-01-09T12:09:47.512Z,13.10
2023-01-09T12:13:10.975Z,13.00
2023-01-09T12:16:37.290Z,11.20
2023-01-09T12:20:04.671Z,14.00
2023-01-09T12:23:23.928Z,12.10
2023-01-09T12:26:44.160Z,14.40
2023-01-09T12:29:57.071Z,12.70
2023-01-09T12:33:38.735Z,13.00
2023-01-09T12:36:55.169Z,15.50
2023-01-09T12:40:26.736Z,13.70
2023-01-09T12:43:42.122Z,17.80
2023-01-09T12:47:24.055Z,16.50
2023-01-09T12:50:27.946Z,14.30
2023-01-09T12:53:40.044Z,14.10
2023-01-09T12:56:57.918Z,15.60
2023-01-09T13:00:15.442Z,9.40
2023-01-09T13:03:42.067Z,13.50
2023-01-09T13:06:56.651Z,18.60
2023-01-09T13:10:05.630Z,15.80
2023-01-09T13:13:21.136Z,15.80
2023-01-09T13:16:32.281Z,14.00
2023-01-09T13:19:42.264Z,15.10
2023-01-09T13:22:50.829Z,13.30
2023-01-09T13:26:00.659Z,14.50
2023-01-09T13:29:34.535Z,16.70
2023-01-09T13:32:53.643Z,14.90
2023-01-09T13:35:59.448Z,14.50
2023-01-09T13:39:04.722Z,12.30
2023-01-09T13:42:39.202Z,14.30
2023-01-09T13:45:45.068Z,13.90
2023-01-09T13:48:55.021Z,14.70
2023-01-09T13:52:24.357Z,15.40
2023-01-09T13:55:35.617Z,16.60
2023-01-09T13:58:39.716Z,11.90
2023-01-09T14:01:46.056Z,11.90
2023-01-09T14:04:50.090Z,17.00
2023-01-09T14:08:26.367Z,14.50
2023-01-09T14:11:30.437Z,14.70
2023-01-09T14:14:35.745Z,15.40
2023-01-09T14:17:39.701Z,14.10
2023-01-09T14:20:57.873Z,9.60
2023-01-09T14:24:07.290Z,13.10
2023-01-09T14:27:55.792Z,15.90
2023-01-09T14:30:59.807Z,15.60
2023-01-09T14:34:31.061Z,14.40
2023-01-09T14:37:39.447Z,15.10
2023-01-09T14:40:50.828Z,13.60
2023-01-09T14:44:01.823Z,15.20
2023-01-09T14:47:17.132Z,15.00
2023-01-09T14:50:38.339Z,14.20
2023-01-09T14:53:43.405Z,16.80
2023-01-09T14:56:48.256Z,14.70
2023-01-09T15:00:00.946Z,13.70
2023-01-09T15:03:05.111Z,14.60
2023-01-09T15:06:14.923Z,12.80
2023-01-09T15:09:44.733Z,13.70
2023-01-09T15:12:51.656Z,15.50
2023-01-09T15:15:56.052Z,16.20
2023-01-09T15:19:04.140Z,15.60
2023-01-09T15:22:22.263Z,14.40
2023-01-09T15:25:40.581Z,14.80
2023-01-09T15:28:44.976Z,16.60
2023-01-09T15:31:54.352Z,15.30
2023-01-09T15:34:58.497Z,13.80
2023-01-09T15:38:02.496Z,15.20
2023-01-09T15:41:17.002Z,13.80
2023-01-09T15:44:27.478Z,14.10
2023-01-09T15:50:36.768Z,13.00
2023-01-09T15:53:42.262Z,12.90
2023-01-09T15:56:47.060Z,14.20
2023-01-09T15:59:52.174Z,15.40
2023-01-09T16:03:11.968Z,15.00
2023-01-09T16:06:27.124Z,16.30
2023-01-09T16:09:32.291Z,15.70
2023-01-09T16:12:36.297Z,18.20
2023-01-09T16:15:45.669Z,21.00
2023-01-09T16:18:51.928Z,17.20
2023-01-09T16:22:01.966Z,18.20
2023-01-09T16:25:30.654Z,18.70
2023-01-09T16:28:34.693Z,18.20
2023-01-09T16:31:38.744Z,20.00
2023-01-09T16:34:44.245Z,15.90
2023-01-09T16:37:48.446Z,16.30
2023-01-09T16:41:18.596Z,16.80
2023-01-09T16:44:22.607Z,17.70
2023-01-09T16:47:26.617Z,15.60
2023-01-09T16:50:30.637Z,17.30
2023-01-09T16:53:34.712Z,16.80
2023-01-09T16:56:40.447Z,16.90
2023-01-09T16:59:45.431Z,18.70
2023-01-09T17:02:49.670Z,18.00
2023-01-09T17:05:56.412Z,18.20
2023-01-09T17:09:00.411Z,17.10
2023-01-09T17:12:05.203Z,18.80
2023-01-09T17:15:10.699Z,18.40
2023-01-09T17:18:17.840Z,17.00
2023-01-09T17:21:29.065Z,20.60
2023-01-09T17:24:52.513Z,19.30
2023-01-09T17:28:22.830Z,16.90
2023-01-09T17:31:27.086Z,17.00
2023-01-09T17:34:31.156Z,16.40
2023-01-09T17:37:35.499Z,16.50
2023-01-09T17:40:39.413Z,16.70
2023-01-09T17:43:46.070Z,16.80
2023-01-09T17:46:50.643Z,17.40
2023-01-09T17:49:54.622Z,18.90
2023-01-09T17:52:58.638Z,19.40
2023-01-09T17:56:04.932Z,19.20
2023-01-09T17:59:15.374Z,19.60
2023-01-09T18:02:19.903Z,18.40
2023-01-09T18:08:28.733Z,18.70
2023-01-09T18:11:33.150Z,16.00
2023-01-09T18:14:41.393Z,18.50
2023-01-09T18:17:45.779Z,16.00
2023-01-09T18:20:50.233Z,15.50
2023-01-09T18:23:55.180Z,15.70
2023-01-09T18:26:59.075Z,17.90
2023-01-09T18:30:05.774Z,16.60
2023-01-09T18:33:10.652Z,18.80
2023-01-09T18:39:18.843Z,18.80
2023-01-09T18:42:22.788Z,17.10
2023-01-09T18:45:26.709Z,17.10
2023-01-09T18:48:30.815Z,18.80
2023-01-09T18:51:36.754Z,18.20
2023-01-09T18:54:42.694Z,16.80
2023-01-09T18:57:46.625Z,17.40
2023-01-09T19:00:51.743Z,15.50
2023-01-09T19:03:56.830Z,15.10
2023-01-09T19:07:00.824Z,14.20
2023-01-09T19:10:05.612Z,17.10
2023-01-09T19:13:09.967Z,16.20
2023-01-09T19:16:14.087Z,14.40
2023-01-09T19:19:18.230Z,15.20
2023-01-09T19:22:22.231Z,15.90
2023-01-09T19:25:26.275Z,16.40
2023-01-09T19:28:30.184Z,16.10
2023-01-09T19:31:34.394Z,16.00
2023-01-09T19:34:38.423Z,15.10
2023-01-09T19:37:42.318Z,16.50
2023-01-09T19:40:46.644Z,17.30
2023-01-09T19:43:50.929Z,16.60
2023-01-09T19:46:55.380Z,16.10
2023-01-09T19:49:59.404Z,17.30
2023-01-09T19:53:03.364Z,17.30
2023-01-09T19:56:21.936Z,14.70
2023-01-09T19:59:25.892Z,15.10
2023-01-09T20:02:29.829Z,15.90
2023-01-09T20:05:33.888Z,16.50
2023-01-09T20:08:37.810Z,16.60
2023-01-09T20:11:44.640Z,17.20
2023-01-09T20:14:48.687Z,16.10
2023-01-09T20:17:53.152Z,15.90
2023-01-09T20:20:57.381Z,15.40
2023-01-09T20:24:05.280Z,15.40
2023-01-09T20:27:09.298Z,16.60
2023-01-09T20:30:14.251Z,15.50
2023-01-09T20:33:19.898Z,16.10
2023-01-09T20:36:29.157Z,16.40
2023-01-09T20:39:33.433Z,16.40
2023-01-09T20:42:37.317Z,15.80
2023-01-09T20:45:41.354Z,15.10
2023-01-09T20:48:46.089Z,16.70
2023-01-09T20:54:55.776Z,14.80
2023-01-09T20:57:59.714Z,15.60
2023-01-09T21:01:12.909Z,15.80
2023-01-09T21:04:18.260Z,14.80
2023-01-09T21:07:24.490Z,15.40
2023-01-09T21:10:28.465Z,15.70
2023-01-09T21:13:32.415Z,15.20
2023-01-09T21:16:36.380Z,14.20
2023-01-09T21:19:40.354Z,14.10
2023-01-09T21:22:44.425Z,14.20
2023-01-09T21:25:49.049Z,14.10
2023-01-09T21:28:55.461Z,14.30
2023-01-09T21:31:59.802Z,14.90
2023-01-09T21:35:05.917Z,14.30
2023-01-09T21:38:09.931Z,14.50
2023-01-09T21:41:36.921Z,15.20
2023-01-09T21:44:59.708Z,13.60
2023-01-09T21:48:07.309Z,15.50
2023-01-09T21:51:11.232Z,16.40
2023-01-09T21:54:15.370Z,16.50
2023-01-09T21:57:19.625Z,17.70
2023-01-09T22:00:24.712Z,17.60
2023-01-09T22:03:28.813Z,18.20
2023-01-09T22:06:32.867Z,16.90
2023-01-09T22:09:37.397Z,18.90
2023-01-09T22:13:01.305Z,16.70
2023-01-09T22:16:07.988Z,16.70
2023-01-09T22:19:13.611Z,18.20
2023-01-09T22:22:17.630Z,20.10
2023-01-09T22:25:22.830Z,19.70
2023-01-09T22:28:26.912Z,16.50
2023-01-09T22:31:32.888Z,17.60
2023-01-09T22:34:37.067Z,16.70
2023-01-09T22:37:41.390Z,17.10
2023-01-09T22:40:45.310Z,17.20
2023-01-09T22:43:49.264Z,16.50
2023-01-09T22:46:53.344Z,15.50
2023-01-09T22:49:57.353Z,16.40
2023-01-09T22:53:01.993Z,15.50
2023-01-09T22:56:11.223Z,17.20
2023-01-09T22:59:15.236Z,18.70
2023-01-09T23:02:19.316Z,18.10
2023-01-09T23:05:23.345Z,18.00
2023-01-09T23:08:28.076Z,17.80
2023-01-09T23:11:51.079Z,17.40
2023-01-09T23:14:55.068Z,16.70
2023-01-09T23:17:59.411Z,17.80
2023-01-09T23:21:05.146Z,16.10
2023-01-09T23:24:09.495Z,18.10
2023-01-09T23:27:13.496Z,17.50
2023-01-09T23:30:17.514Z,17.50
2023-01-09T23:33:21.504Z,15.90
2023-01-09T23:36:25.420Z,17.90
2023-01-09T23:39:29.304Z,15.20
2023-01-09T23:42:51.802Z,16.90
2023-01-09T23:45:55.854Z,16.80
2023-01-09T23:48:59.962Z,15.20
2023-01-09T23:52:06.109Z,15.50
2023-01-09T23:55:11.143Z,15.70
2023-01-09T23:58:15.165Z,17.40
